Time;durP1;ratioP1;P1;durP2;ratioP2;P2;SDS_P1;SDS_P2;PMS_P1;PMS_P2;Temp;Humidity;BMP_temperature;BMP_pressure;BME280_temperature;BME280_humidity;BME280_pressure;Samples;Min_cycle;Max_cycle;Signal;HPM_P1;HPM_P2
2023/12/15 00:01:50;;;;;;;41.70;19.33;;;;;;;;;;5074153;28;20430;-83
2023/12/15 00:04:17;;;;;;;35.70;19.33;;;;;;;;;;5072841;28;20463;-82
2023/12/15 00:06:45;;;;;;;34.03;18.07;;;;;;;;;;5073949;28;20454;-82
2023/12/15 00:09:11;;;;;;;35.33;18.27;;;;;;;;;;5074379;28;20445;-82
2023/12/15 00:11:38;;;;;;;32.77;17.50;;;;;;;;;;5073534;28;20449;-82
2023/12/15 00:14:04;;;;;;;36.00;17.43;;;;;;;;;;5073813;28;20467;-82
2023/12/15 00:16:31;;;;;;;32.27;18.27;;;;;;;;;;5074121;28;20442;-81
2023/12/15 00:18:57;;;;;;;35.10;19.07;;;;;;;;;;5073955;28;20470;-82
2023/12/15 00:21:24;;;;;;;33.33;17.70;;;;;;;;;;5074284;28;20438;-81
2023/12/15 00:23:52;;;;;;;31.57;17.20;;;;;;;;;;5073933;28;20478;-82
2023/12/15 00:26:18;;;;;;;35.60;18.67;;;;;;;;;;5073464;28;20956;-82
2023/12/15 00:28:45;;;;;;;34.17;18.63;;;;;;;;;;5072147;28;21048;-81
2023/12/15 00:31:12;;;;;;;34.43;17.37;;;;;;;;;;5072722;28;20851;-81
2023/12/15 00:33:38;;;;;;;39.33;19.13;;;;;;;;;;5072281;28;20466;-81
2023/12/15 00:36:06;;;;;;;40.43;18.97;;;;;;;;;;5074082;28;20435;-81
2023/12/15 00:38:33;;;;;;;36.50;18.57;;;;;;;;;;5073077;28;20471;-81
2023/12/15 00:41:01;;;;;;;39.90;20.10;;;;;;;;;;5073841;28;20542;-81
2023/12/15 00:43:27;;;;;;;35.00;17.90;;;;;;;;;;5073485;28;20468;-81
2023/12/15 00:45:54;;;;;;;32.40;16.40;;;;;;;;;;5073607;28;20459;-83
2023/12/15 00:48:20;;;;;;;36.73;18.20;;;;;;;;;;5073138;28;20466;-80
2023/12/15 00:50:47;;;;;;;31.70;17.70;;;;;;;;;;5073572;28;21008;-81
2023/12/15 00:53:13;;;;;;;35.00;17.37;;;;;;;;;;5073242;28;21014;-81
2023/12/15 00:55:40;;;;;;;34.00;18.33;;;;;;;;;;5073691;28;20467;-80
2023/12/15 00:58:08;;;;;;;36.00;20.17;;;;;;;;;;5072760;28;20467;-82
2023/12/15 01:00:34;;;;;;;31.57;18.20;;;;;;;;;;5073444;28;20812;-81
2023/12/15 01:03:02;;;;;;;33.63;18.20;;;;;;;;;;5072748;28;20498;-81
2023/12/15 01:05:28;;;;;;;33.93;18.70;;;;;;;;;;5073637;28;20546;-80
2023/12/15 01:07:55;;;;;;;37.23;19.43;;;;;;;;;;5073141;28;20477;-80
2023/12/15 01:10:21;;;;;;;32.40;19.70;;;;;;;;;;5055619;28;20471;-81
2023/12/15 01:12:48;;;;;;;36.83;20.10;;;;;;;;;;5073147;28;20471;-80
2023/12/15 01:15:16;;;;;;;37.63;18.40;;;;;;;;;;5073210;28;20995;-81
2023/12/15 01:17:43;;;;;;;32.43;17.37;;;;;;;;;;5073251;28;20471;-82
2023/12/15 01:20:10;;;;;;;35.37;18.47;;;;;;;;;;5073565;28;20477;-81
2023/12/15 01:22:36;;;;;;;34.27;19.37;;;;;;;;;;5073111;28;20553;-80
2023/12/15 01:25:03;;;;;;;35.40;19.70;;;;;;;;;;5073308;28;20467;-81
2023/12/15 01:27:30;;;;;;;41.10;19.87;;;;;;;;;;5072968;28;20471;-81
2023/12/15 01:29:56;;;;;;;36.63;20.30;;;;;;;;;;5072145;28;20487;-81
2023/12/15 01:32:24;;;;;;;40.13;19.90;;;;;;;;;;5072580;28;20463;-82
2023/12/15 01:34:50;;;;;;;36.33;19.30;;;;;;;;;;5072913;28;20952;-81
2023/12/15 01:37:17;;;;;;;42.70;20.03;;;;;;;;;;5072857;28;20467;-81
2023/12/15 01:39:43;;;;;;;38.57;21.30;;;;;;;;;;5073262;28;20495;-81
2023/12/15 01:42:09;;;;;;;37.60;20.70;;;;;;;;;;5072673;28;20459;-82
2023/12/15 01:44:36;;;;;;;41.97;22.47;;;;;;;;;;5073011;28;20510;-81
2023/12/15 01:47:02;;;;;;;39.90;20.70;;;;;;;;;;5072617;28;20463;-82
2023/12/15 01:49:30;;;;;;;38.67;22.10;;;;;;;;;;5072613;28;20442;-81
2023/12/15 01:51:57;;;;;;;42.40;22.37;;;;;;;;;;5072997;28;20620;-81
2023/12/15 01:54:23;;;;;;;41.50;20.40;;;;;;;;;;5072469;28;20905;-80
2023/12/15 01:56:50;;;;;;;44.73;24.50;;;;;;;;;;5072390;28;20457;-80
2023/12/15 01:59:16;;;;;;;42.60;21.03;;;;;;;;;;5073302;28;20435;-80
2023/12/15 02:01:43;;;;;;;43.03;22.20;;;;;;;;;;5072434;28;20437;-80
2023/12/15 02:04:09;;;;;;;45.00;22.00;;;;;;;;;;5072584;28;20553;-80
2023/12/15 02:06:37;;;;;;;44.30;24.67;;;;;;;;;;5073140;28;20443;-80
2023/12/15 02:09:05;;;;;;;40.60;22.40;;;;;;;;;;5055817;28;20448;-80
2023/12/15 02:11:32;;;;;;;45.80;25.23;;;;;;;;;;5056598;28;20472;-81
2023/12/15 02:13:58;;;;;;;51.60;22.67;;;;;;;;;;5056304;28;20472;-80
2023/12/15 02:16:25;;;;;;;41.80;20.87;;;;;;;;;;5055108;28;20436;-80
2023/12/15 02:18:51;;;;;;;44.47;23.93;;;;;;;;;;5055069;28;20972;-80
2023/12/15 02:21:18;;;;;;;49.43;22.40;;;;;;;;;;5056715;28;20444;-80
2023/12/15 02:23:46;;;;;;;48.63;24.00;;;;;;;;;;5055735;28;20507;-80
2023/12/15 02:26:12;;;;;;;45.03;22.30;;;;;;;;;;5056549;28;20444;-80
2023/12/15 02:28:39;;;;;;;56.13;23.33;;;;;;;;;;5055795;28;20470;-80
2023/12/15 02:31:05;;;;;;;50.30;23.90;;;;;;;;;;5056016;28;20993;-80
2023/12/15 02:33:32;;;;;;;46.47;24.37;;;;;;;;;;5055810;28;20470;-80
2023/12/15 02:35:58;;;;;;;51.97;23.77;;;;;;;;;;5056018;28;20466;-80
2023/12/15 02:38:25;;;;;;;49.63;24.50;;;;;;;;;;5056519;28;20462;-80
2023/12/15 02:40:53;;;;;;;41.83;23.10;;;;;;;;;;5055903;28;20447;-80
2023/12/15 02:43:21;;;;;;;41.53;21.47;;;;;;;;;;5055952;28;20474;-80
2023/12/15 02:45:47;;;;;;;46.40;22.70;;;;;;;;;;5055735;28;20471;-80
2023/12/15 02:48:17;;;;;;;43.53;23.87;;;;;;;;;;5055498;28;20471;-79
2023/12/15 02:50:44;;;;;;;43.90;22.80;;;;;;;;;;5056177;28;20464;-80
2023/12/15 02:53:11;;;;;;;45.47;22.67;;;;;;;;;;5055224;28;20467;-80
2023/12/15 02:55:38;;;;;;;49.40;21.87;;;;;;;;;;5055465;28;20985;-80
2023/12/15 02:58:06;;;;;;;54.90;24.53;;;;;;;;;;5055292;28;20555;-80
2023/12/15 03:00:32;;;;;;;47.27;24.00;;;;;;;;;;5055995;28;20442;-80
2023/12/15 03:02:59;;;;;;;46.33;23.10;;;;;;;;;;5055255;28;20471;-80
2023/12/15 03:05:26;;;;;;;48.83;25.90;;;;;;;;;;5055692;28;20829;-80
2023/12/15 03:07:52;;;;;;;45.50;23.67;;;;;;;;;;5054169;28;20464;-80
2023/12/15 03:10:19;;;;;;;49.03;24.33;;;;;;;;;;5055625;28;20462;-80
2023/12/15 03:12:46;;;;;;;62.33;27.90;;;;;;;;;;5055286;28;20472;-80
2023/12/15 03:15:14;;;;;;;56.40;25.97;;;;;;;;;;5055392;28;20486;-81
2023/12/15 03:17:40;;;;;;;52.93;26.07;;;;;;;;;;5055239;28;20471;-80
2023/12/15 03:20:08;;;;;;;50.10;24.30;;;;;;;;;;5055070;28;20783;-81
2023/12/15 03:22:34;;;;;;;63.43;29.10;;;;;;;;;;5054697;28;20495;-81
2023/12/15 03:25:00;;;;;;;45.30;24.67;;;;;;;;;;5055145;28;20470;-81
2023/12/15 03:27:27;;;;;;;50.53;27.27;;;;;;;;;;5054450;28;21001;-83
2023/12/15 03:29:53;;;;;;;58.17;25.57;;;;;;;;;;5055254;28;20530;-81
2023/12/15 03:32:21;;;;;;;53.37;26.03;;;;;;;;;;5053373;28;20471;-81
2023/12/15 03:34:48;;;;;;;54.40;26.47;;;;;;;;;;5055131;28;20870;-81
2023/12/15 03:37:14;;;;;;;55.97;28.70;;;;;;;;;;5054591;28;20470;-82
2023/12/15 03:39:41;;;;;;;47.47;25.40;;;;;;;;;;5055233;28;20518;-81
2023/12/15 03:42:09;;;;;;;52.57;29.70;;;;;;;;;;5054473;28;20455;-80
2023/12/15 03:44:36;;;;;;;55.17;28.83;;;;;;;;;;5053391;28;20456;-80
2023/12/15 03:47:02;;;;;;;57.03;29.10;;;;;;;;;;5054226;28;20529;-82
2023/12/15 03:49:31;;;;;;;52.27;28.30;;;;;;;;;;5055143;28;20519;-80
2023/12/15 03:51:57;;;;;;;64.97;30.47;;;;;;;;;;5054447;28;20539;-80
2023/12/15 03:54:24;;;;;;;52.13;26.13;;;;;;;;;;5054575;28;20470;-80
2023/12/15 03:56:55;;;;;;;59.40;28.33;;;;;;;;;;5054041;28;20440;-80
2023/12/15 03:59:22;;;;;;;49.53;27.03;;;;;;;;;;5054820;28;20440;-81
2023/12/15 04:01:48;;;;;;;59.37;26.67;;;;;;;;;;5053850;28;20945;-83
2023/12/15 04:04:15;;;;;;;58.50;28.03;;;;;;;;;;5054620;28;20530;-80
2023/12/15 04:06:44;;;;;;;54.33;28.37;;;;;;;;;;5054365;28;20531;-80
2023/12/15 04:09:11;;;;;;;57.17;30.07;;;;;;;;;;5054659;28;20439;-82
2023/12/15 04:11:37;;;;;;;60.73;27.97;;;;;;;;;;5052442;28;20482;-82
2023/12/15 04:14:04;;;;;;;56.33;29.37;;;;;;;;;;5054298;28;20460;-82
2023/12/15 04:16:31;;;;;;;63.13;31.50;;;;;;;;;;5052881;28;20448;-80
2023/12/15 04:18:59;;;;;;;58.37;27.00;;;;;;;;;;5054267;28;20478;-80
2023/12/15 04:21:25;;;;;;;68.30;29.20;;;;;;;;;;5054231;28;20442;-81
2023/12/15 04:23:53;;;;;;;69.17;33.87;;;;;;;;;;5053382;28;20472;-81
2023/12/15 04:26:19;;;;;;;65.30;30.67;;;;;;;;;;5054342;28;20440;-82
2023/12/15 04:28:46;;;;;;;55.50;28.70;;;;;;;;;;5053893;28;20468;-80
2023/12/15 04:31:15;;;;;;;68.67;32.60;;;;;;;;;;5053458;28;20480;-81
2023/12/15 04:33:42;;;;;;;70.93;31.60;;;;;;;;;;5053341;28;20482;-80
2023/12/15 04:36:09;;;;;;;67.17;32.40;;;;;;;;;;5054062;28;20457;-80
2023/12/15 04:38:35;;;;;;;64.00;30.97;;;;;;;;;;5053330;28;20459;-81
2023/12/15 04:41:03;;;;;;;71.40;31.37;;;;;;;;;;5053515;28;20796;-81
2023/12/15 04:43:29;;;;;;;62.03;31.10;;;;;;;;;;5051900;28;20482;-82
2023/12/15 04:45:56;;;;;;;77.03;33.43;;;;;;;;;;5052807;28;20474;-82
2023/12/15 04:48:23;;;;;;;77.20;34.03;;;;;;;;;;5053425;28;20464;-82
2023/12/15 04:50:50;;;;;;;67.53;32.17;;;;;;;;;;5053618;28;20444;-81
2023/12/15 04:53:16;;;;;;;81.83;34.70;;;;;;;;;;5053715;28;20479;-82
2023/12/15 04:55:43;;;;;;;70.27;32.73;;;;;;;;;;5054200;28;20460;-81
2023/12/15 04:58:11;;;;;;;78.30;35.90;;;;;;;;;;5052319;28;20879;-82
2023/12/15 05:00:37;;;;;;;73.27;31.60;;;;;;;;;;5053928;28;20814;-82
2023/12/15 05:03:03;;;;;;;76.60;33.80;;;;;;;;;;5054038;28;20471;-82
2023/12/15 05:05:30;;;;;;;83.87;33.60;;;;;;;;;;5053840;28;20981;-81
2023/12/15 05:07:56;;;;;;;89.73;34.10;;;;;;;;;;5053783;28;20525;-79
2023/12/15 05:10:22;;;;;;;77.73;33.63;;;;;;;;;;5053864;28;20446;-80
2023/12/15 05:12:49;;;;;;;84.30;34.10;;;;;;;;;;5053427;28;20468;-82
2023/12/15 05:15:16;;;;;;;72.17;33.67;;;;;;;;;;5053967;28;20978;-81
2023/12/15 05:17:43;;;;;;;71.27;32.17;;;;;;;;;;5054007;28;20475;-81
2023/12/15 05:20:09;;;;;;;73.77;32.30;;;;;;;;;;5054169;28;20443;-80
2023/12/15 05:22:36;;;;;;;77.97;33.37;;;;;;;;;;5053630;28;20464;-81
2023/12/15 05:25:03;;;;;;;76.60;32.77;;;;;;;;;;5053475;28;20456;-80
2023/12/15 05:27:29;;;;;;;86.47;33.80;;;;;;;;;;5053650;28;20479;-80
2023/12/15 05:29:56;;;;;;;82.53;33.97;;;;;;;;;;5053990;28;20440;-80
2023/12/15 05:32:23;;;;;;;92.63;35.43;;;;;;;;;;5053282;28;20846;-80
2023/12/15 05:34:50;;;;;;;91.03;35.50;;;;;;;;;;5052440;28;20517;-80
2023/12/15 05:37:16;;;;;;;74.07;36.73;;;;;;;;;;5057156;28;20528;-80
2023/12/15 05:39:44;;;;;;;95.37;39.40;;;;;;;;;;5074138;28;20435;-80
2023/12/15 05:42:10;;;;;;;88.77;35.50;;;;;;;;;;5072391;28;20466;-80
2023/12/15 05:44:38;;;;;;;88.27;35.30;;;;;;;;;;5077270;28;20465;-80
2023/12/15 05:47:05;;;;;;;93.40;34.63;;;;;;;;;;5077429;28;20461;-80
2023/12/15 05:49:34;;;;;;;92.30;36.57;;;;;;;;;;5078633;28;20430;-80
2023/12/15 05:52:00;;;;;;;89.07;36.07;;;;;;;;;;5076815;28;20819;-80
2023/12/15 05:54:27;;;;;;;78.13;35.60;;;;;;;;;;5077028;28;20462;-80
2023/12/15 05:56:56;;;;;;;88.57;35.23;;;;;;;;;;5077222;28;20438;-80
2023/12/15 05:59:22;;;;;;;87.13;35.10;;;;;;;;;;5077427;28;20473;-80
2023/12/15 06:01:48;;;;;;;97.53;32.97;;;;;;;;;;5077090;28;20793;-80
2023/12/15 06:04:15;;;;;;;82.50;34.43;;;;;;;;;;5077538;28;20462;-80
2023/12/15 06:06:43;;;;;;;85.33;33.10;;;;;;;;;;5077063;28;20936;-81
2023/12/15 06:09:09;;;;;;;71.17;33.20;;;;;;;;;;5077358;28;20431;-80
2023/12/15 06:11:39;;;;;;;91.47;35.17;;;;;;;;;;5077330;28;20524;-80
2023/12/15 06:14:06;;;;;;;91.70;35.50;;;;;;;;;;5075998;28;20516;-80
2023/12/15 06:16:32;;;;;;;99.07;36.73;;;;;;;;;;5075666;28;20450;-80
2023/12/15 06:18:59;;;;;;;97.87;35.47;;;;;;;;;;5076691;28;20474;-80
2023/12/15 06:21:26;;;;;;;98.90;36.50;;;;;;;;;;5077015;28;20443;-80
2023/12/15 06:23:54;;;;;;;84.97;35.00;;;;;;;;;;5076295;28;20489;-80
2023/12/15 06:26:20;;;;;;;102.00;36.00;;;;;;;;;;5076816;28;20450;-80
2023/12/15 06:28:47;;;;;;;85.93;33.97;;;;;;;;;;5076808;28;20467;-80
2023/12/15 06:31:13;;;;;;;88.10;34.20;;;;;;;;;;5076814;28;20447;-80
2023/12/15 06:33:39;;;;;;;85.63;33.77;;;;;;;;;;5077005;28;20516;-79
2023/12/15 06:36:06;;;;;;;83.70;34.30;;;;;;;;;;5075918;28;20447;-80
2023/12/15 06:38:32;;;;;;;87.77;35.13;;;;;;;;;;5074508;28;20466;-80
2023/12/15 06:41:00;;;;;;;76.43;32.60;;;;;;;;;;5075307;28;20450;-80
2023/12/15 06:43:27;;;;;;;90.87;33.30;;;;;;;;;;5074948;28;20474;-80
2023/12/15 06:45:54;;;;;;;84.83;35.07;;;;;;;;;;5075134;28;20463;-81
2023/12/15 06:48:22;;;;;;;86.93;37.20;;;;;;;;;;5074540;28;20471;-80
2023/12/15 06:50:49;;;;;;;89.70;34.90;;;;;;;;;;5076183;28;20816;-80
2023/12/15 06:53:17;;;;;;;84.30;33.40;;;;;;;;;;5076366;28;20478;-80
2023/12/15 06:55:43;;;;;;;73.30;31.83;;;;;;;;;;5075740;28;20459;-80
2023/12/15 06:58:11;;;;;;;80.33;32.67;;;;;;;;;;5077049;28;20462;-81
2023/12/15 07:00:39;;;;;;;78.00;29.73;;;;;;;;;;5077354;28;20438;-81
2023/12/15 07:03:07;;;;;;;83.60;31.93;;;;;;;;;;5076339;28;20540;-82
2023/12/15 07:05:34;;;;;;;85.20;35.37;;;;;;;;;;5076919;28;20450;-81
2023/12/15 07:08:02;;;;;;;77.97;33.60;;;;;;;;;;5076735;28;20516;-81
2023/12/15 07:10:28;;;;;;;78.83;31.90;;;;;;;;;;5076866;28;20435;-81
2023/12/15 07:12:54;;;;;;;81.10;30.90;;;;;;;;;;5076392;28;20553;-79
2023/12/15 07:15:22;;;;;;;76.50;30.93;;;;;;;;;;5076759;28;20459;-80
2023/12/15 07:17:49;;;;;;;84.47;33.07;;;;;;;;;;5076695;28;20473;-80
2023/12/15 07:20:15;;;;;;;90.37;33.80;;;;;;;;;;5077216;28;20435;-81
2023/12/15 07:22:42;;;;;;;83.10;32.60;;;;;;;;;;5076127;28;20478;-82
2023/12/15 07:25:10;;;;;;;79.60;30.93;;;;;;;;;;5076479;28;20461;-80
2023/12/15 07:27:36;;;;;;;81.53;33.57;;;;;;;;;;5076687;28;20478;-80
2023/12/15 07:30:03;;;;;;;89.20;34.53;;;;;;;;;;5076863;28;20462;-80
2023/12/15 07:32:30;;;;;;;71.53;30.10;;;;;;;;;;5075584;28;20471;-81
2023/12/15 07:34:58;;;;;;;69.63;32.20;;;;;;;;;;5075957;28;20466;-81
2023/12/15 07:37:24;;;;;;;83.17;30.97;;;;;;;;;;5076356;28;20474;-80
2023/12/15 07:39:50;;;;;;;83.33;32.40;;;;;;;;;;5076148;28;20434;-82
2023/12/15 07:42:17;;;;;;;66.47;32.50;;;;;;;;;;5075409;28;20988;-81
2023/12/15 07:44:43;;;;;;;66.47;29.57;;;;;;;;;;5074513;28;20463;-82
2023/12/15 07:47:09;;;;;;;74.33;31.07;;;;;;;;;;5073878;28;20469;-81
2023/12/15 07:49:37;;;;;;;65.60;29.23;;;;;;;;;;5076001;28;20442;-82
2023/12/15 07:52:04;;;;;;;68.60;28.20;;;;;;;;;;5075490;28;20467;-82
2023/12/15 07:54:31;;;;;;;72.20;30.00;;;;;;;;;;5075101;28;20469;-81
2023/12/15 07:56:57;;;;;;;72.93;31.60;;;;;;;;;;5075557;28;20467;-82
2023/12/15 07:59:24;;;;;;;71.67;30.20;;;;;;;;;;5075817;28;20442;-80
2023/12/15 08:01:51;;;;;;;84.83;31.77;;;;;;;;;;5074924;28;20975;-81
2023/12/15 08:04:17;;;;;;;71.10;31.30;;;;;;;;;;5075750;28;20451;-80
2023/12/15 08:06:45;;;;;;;74.43;31.90;;;;;;;;;;5074887;28;20443;-80
2023/12/15 08:09:11;;;;;;;70.33;30.60;;;;;;;;;;5075680;28;20823;-80
2023/12/15 08:11:38;;;;;;;77.97;34.13;;;;;;;;;;5074766;28;20957;-80
2023/12/15 08:14:04;;;;;;;62.30;31.30;;;;;;;;;;5077542;28;20487;-80
2023/12/15 08:16:31;;;;;;;66.57;29.90;;;;;;;;;;5075666;28;20435;-80
2023/12/15 08:18:57;;;;;;;79.73;31.90;;;;;;;;;;5073344;28;20996;-80
2023/12/15 08:21:24;;;;;;;63.70;28.60;;;;;;;;;;5074040;28;20450;-80
2023/12/15 08:23:52;;;;;;;71.97;30.90;;;;;;;;;;5073009;28;20493;-80
2023/12/15 08:26:25;;;;;;;62.53;30.70;;;;;;;;;;5075155;28;20809;-80
2023/12/15 08:28:53;;;;;;;68.17;30.53;;;;;;;;;;5074989;28;20482;-80
2023/12/15 08:31:20;;;;;;;60.10;28.00;;;;;;;;;;5075028;28;20439;-80
2023/12/15 08:33:46;;;;;;;80.63;30.00;;;;;;;;;;5074473;28;20482;-80
2023/12/15 08:36:12;;;;;;;69.00;31.30;;;;;;;;;;5071013;28;20467;-80
2023/12/15 08:38:39;;;;;;;66.63;29.67;;;;;;;;;;5074930;28;20450;-80
2023/12/15 08:41:07;;;;;;;65.07;26.73;;;;;;;;;;5074374;28;20467;-80
2023/12/15 08:43:33;;;;;;;59.87;28.00;;;;;;;;;;5074852;28;20435;-80
2023/12/15 08:46:00;;;;;;;60.43;26.50;;;;;;;;;;5074434;28;21000;-80
2023/12/15 08:48:26;;;;;;;68.00;29.40;;;;;;;;;;5074936;28;20440;-80
2023/12/15 08:50:53;;;;;;;60.53;26.90;;;;;;;;;;5074319;28;20834;-80
2023/12/15 08:53:19;;;;;;;73.43;27.63;;;;;;;;;;5073256;28;20486;-80
2023/12/15 08:55:45;;;;;;;65.53;28.23;;;;;;;;;;5074333;28;20471;-80
2023/12/15 08:58:13;;;;;;;57.90;26.30;;;;;;;;;;5074583;28;20446;-80
2023/12/15 09:00:40;;;;;;;73.83;28.00;;;;;;;;;;5074596;28;20512;-80
2023/12/15 09:03:07;;;;;;;59.43;26.90;;;;;;;;;;5074778;28;20435;-80
2023/12/15 09:05:34;;;;;;;73.30;25.87;;;;;;;;;;5073785;28;20459;-80
2023/12/15 09:08:00;;;;;;;59.60;26.03;;;;;;;;;;5072807;28;20447;-80
2023/12/15 09:10:33;;;;;;;60.77;24.97;;;;;;;;;;5073982;28;20439;-80
2023/12/15 09:13:00;;;;;;;53.97;24.90;;;;;;;;;;5073044;28;20482;-79
2023/12/15 09:15:27;;;;;;;56.90;26.53;;;;;;;;;;5072585;28;20839;-79
2023/12/15 09:17:54;;;;;;;63.47;25.10;;;;;;;;;;5073795;28;20814;-80
2023/12/15 09:20:20;;;;;;;62.93;24.80;;;;;;;;;;5073860;28;20443;-80
2023/12/15 09:22:46;;;;;;;57.83;26.87;;;;;;;;;;5074503;28;20441;-80
2023/12/15 09:25:13;;;;;;;55.63;25.37;;;;;;;;;;5073569;28;20463;-80
2023/12/15 09:27:39;;;;;;;71.17;24.73;;;;;;;;;;5074217;28;20944;-80
2023/12/15 09:30:06;;;;;;;50.60;24.33;;;;;;;;;;5074345;28;20456;-80
2023/12/15 09:32:34;;;;;;;50.07;23.70;;;;;;;;;;5073547;28;20474;-80
2023/12/15 09:35:00;;;;;;;55.17;23.73;;;;;;;;;;5074461;28;20455;-80
2023/12/15 09:37:26;;;;;;;59.87;23.27;;;;;;;;;;5073268;28;20470;-80
2023/12/15 09:39:55;;;;;;;44.27;20.73;;;;;;;;;;5074665;28;20808;-80
2023/12/15 09:42:23;;;;;;;58.70;24.10;;;;;;;;;;5073804;28;20471;-80
2023/12/15 09:44:49;;;;;;;49.83;22.47;;;;;;;;;;5074541;28;20462;-80
2023/12/15 09:47:16;;;;;;;60.27;23.73;;;;;;;;;;5072687;28;20991;-80
2023/12/15 09:49:44;;;;;;;64.83;23.03;;;;;;;;;;5074474;28;20439;-80
2023/12/15 09:52:13;;;;;;;47.13;18.93;;;;;;;;;;5074055;28;20467;-80
2023/12/15 09:54:40;;;;;;;49.53;22.90;;;;;;;;;;5074340;28;20490;-80
2023/12/15 09:57:07;;;;;;;51.97;20.90;;;;;;;;;;5073108;28;20462;-80
2023/12/15 09:59:37;;;;;;;50.90;22.27;;;;;;;;;;5073915;28;20443;-80
2023/12/15 10:02:04;;;;;;;59.47;20.80;;;;;;;;;;5073925;28;20550;-80
2023/12/15 10:04:30;;;;;;;43.43;20.90;;;;;;;;;;5074745;28;20482;-80
2023/12/15 10:06:59;;;;;;;57.63;21.20;;;;;;;;;;5074110;28;20984;-80
2023/12/15 10:09:25;;;;;;;44.23;20.07;;;;;;;;;;5074573;28;20438;-80
2023/12/15 10:11:52;;;;;;;39.67;19.50;;;;;;;;;;5074194;28;20481;-80
2023/12/15 10:14:19;;;;;;;51.73;20.60;;;;;;;;;;5073979;28;20509;-80
2023/12/15 10:16:46;;;;;;;51.50;19.60;;;;;;;;;;5073914;28;20573;-80
2023/12/15 10:19:13;;;;;;;39.07;18.50;;;;;;;;;;5073755;28;20802;-80
2023/12/15 10:21:39;;;;;;;35.90;17.53;;;;;;;;;;5073783;28;20478;-80
2023/12/15 10:24:19;;;;;;;44.87;17.93;;;;;;;;;;5072770;28;20980;-80
2023/12/15 10:26:46;;;;;;;44.97;18.10;;;;;;;;;;5073144;28;21042;-80
2023/12/15 10:29:13;;;;;;;40.17;17.00;;;;;;;;;;5073349;28;20497;-80
2023/12/15 10:31:39;;;;;;;42.23;16.67;;;;;;;;;;5076705;28;20847;-81
2023/12/15 10:34:06;;;;;;;44.27;18.43;;;;;;;;;;5077214;28;20573;-80
2023/12/15 10:36:33;;;;;;;33.63;18.37;;;;;;;;;;5075583;28;20466;-79
2023/12/15 10:39:00;;;;;;;43.43;17.20;;;;;;;;;;5077845;28;20497;-81
2023/12/15 10:41:30;;;;;;;45.20;17.37;;;;;;;;;;5075212;28;20484;-80
2023/12/15 10:43:57;;;;;;;41.80;18.00;;;;;;;;;;5077258;28;20479;-80
2023/12/15 10:46:25;;;;;;;44.03;17.77;;;;;;;;;;5076611;28;20467;-80
2023/12/15 10:48:53;;;;;;;42.67;16.97;;;;;;;;;;5077014;28;20445;-80
2023/12/15 10:51:20;;;;;;;36.53;17.17;;;;;;;;;;5075267;28;20486;-80
2023/12/15 10:53:48;;;;;;;36.60;15.90;;;;;;;;;;5075934;28;20478;-80
2023/12/15 10:56:15;;;;;;;37.73;16.13;;;;;;;;;;5075349;28;20520;-80
2023/12/15 10:58:43;;;;;;;50.87;19.10;;;;;;;;;;5075976;28;20937;-80
2023/12/15 11:01:10;;;;;;;32.80;16.60;;;;;;;;;;5075681;28;20466;-79
2023/12/15 11:03:37;;;;;;;32.03;16.73;;;;;;;;;;5075674;28;20450;-80
2023/12/15 11:06:03;;;;;;;41.73;16.30;;;;;;;;;;5075198;28;20826;-80
2023/12/15 11:08:30;;;;;;;38.50;16.37;;;;;;;;;;5074242;28;20823;-80
2023/12/15 11:10:56;;;;;;;36.80;16.10;;;;;;;;;;5073745;28;20471;-80
2023/12/15 11:13:42;;;;;;;29.83;14.47;;;;;;;;;;5075339;28;20482;-80
2023/12/15 11:16:11;;;;;;;37.63;15.77;;;;;;;;;;5075539;28;20482;-80
2023/12/15 11:18:40;;;;;;;31.00;12.97;;;;;;;;;;5075597;28;20450;-80
2023/12/15 11:21:06;;;;;;;26.63;13.73;;;;;;;;;;5075335;28;20467;-80
2023/12/15 11:23:33;;;;;;;31.30;16.17;;;;;;;;;;5075607;28;20439;-80
2023/12/15 11:26:00;;;;;;;43.70;22.57;;;;;;;;;;5074852;28;20482;-80
2023/12/15 11:28:27;;;;;;;52.70;25.07;;;;;;;;;;5075537;28;20439;-80
2023/12/15 11:30:54;;;;;;;121.97;49.70;;;;;;;;;;5075006;28;20953;-80
2023/12/15 11:33:40;;;;;;;119.73;49.77;;;;;;;;;;5075127;28;20478;-80
2023/12/15 11:36:08;;;;;;;37.27;18.63;;;;;;;;;;5074932;28;20459;-80
2023/12/15 11:38:35;;;;;;;33.20;13.90;;;;;;;;;;5075104;28;20508;-80
2023/12/15 11:41:02;;;;;;;34.63;17.03;;;;;;;;;;5074292;28;20847;-80
2023/12/15 11:43:31;;;;;;;28.57;14.90;;;;;;;;;;5074876;28;20988;-80
2023/12/15 11:45:57;;;;;;;37.70;17.90;;;;;;;;;;5074499;28;20471;-80
2023/12/15 11:48:24;;;;;;;41.00;15.13;;;;;;;;;;5075188;28;20439;-80
2023/12/15 11:50:50;;;;;;;37.50;15.30;;;;;;;;;;5074280;28;21023;-80
2023/12/15 11:53:18;;;;;;;49.37;15.90;;;;;;;;;;5074742;28;20482;-80
2023/12/15 11:55:46;;;;;;;36.60;13.87;;;;;;;;;;5074414;28;20478;-80
2023/12/15 11:58:14;;;;;;;37.93;14.57;;;;;;;;;;5075294;28;20461;-83
2023/12/15 12:00:40;;;;;;;23.27;13.30;;;;;;;;;;5074369;28;21072;-81
2023/12/15 12:03:09;;;;;;;47.10;18.93;;;;;;;;;;5075707;28;20444;-82
2023/12/15 12:05:35;;;;;;;33.30;14.20;;;;;;;;;;5075262;28;20467;-81
2023/12/15 12:08:04;;;;;;;32.37;14.30;;;;;;;;;;5075788;28;20443;-80
2023/12/15 12:10:35;;;;;;;33.10;14.00;;;;;;;;;;5074320;28;20472;-80
2023/12/15 12:13:02;;;;;;;33.13;14.00;;;;;;;;;;5074915;28;20440;-80
2023/12/15 12:15:29;;;;;;;30.13;14.37;;;;;;;;;;5074309;28;20462;-80
2023/12/15 12:17:56;;;;;;;35.00;13.47;;;;;;;;;;5074687;28;20443;-80
2023/12/15 12:20:28;;;;;;;37.23;14.07;;;;;;;;;;5073644;28;20442;-80
2023/12/15 12:22:56;;;;;;;35.20;13.70;;;;;;;;;;5074719;28;20427;-82
2023/12/15 12:25:22;;;;;;;28.47;12.57;;;;;;;;;;5073334;28;20817;-82
2023/12/15 12:27:51;;;;;;;28.00;13.87;;;;;;;;;;5074101;28;20809;-81
2023/12/15 12:30:18;;;;;;;38.43;13.83;;;;;;;;;;5074097;28;20928;-81
2023/12/15 12:32:46;;;;;;;37.23;14.97;;;;;;;;;;5073967;28;20442;-82
2023/12/15 12:35:13;;;;;;;42.63;14.70;;;;;;;;;;5073750;28;20483;-81
2023/12/15 12:37:40;;;;;;;62.60;28.10;;;;;;;;;;5078184;28;20435;-81
2023/12/15 12:40:08;;;;;;;36.93;16.33;;;;;;;;;;5076999;28;20458;-80
2023/12/15 12:42:34;;;;;;;64.03;36.47;;;;;;;;;;5072300;28;20474;-80
2023/12/15 12:45:02;;;;;;;54.17;25.10;;;;;;;;;;5074496;28;20451;-81
2023/12/15 12:47:29;;;;;;;57.27;26.00;;;;;;;;;;5074939;28;20478;-80
2023/12/15 12:49:56;;;;;;;48.60;18.77;;;;;;;;;;5074551;28;20466;-79
2023/12/15 12:52:23;;;;;;;42.03;15.07;;;;;;;;;;5074399;28;20505;-80
2023/12/15 12:54:50;;;;;;;46.10;12.77;;;;;;;;;;5074351;28;20483;-80
2023/12/15 12:57:16;;;;;;;26.23;12.90;;;;;;;;;;5073888;28;20500;-80
2023/12/15 12:59:45;;;;;;;30.63;11.63;;;;;;;;;;5073322;28;20873;-80
2023/12/15 13:02:13;;;;;;;31.07;12.13;;;;;;;;;;5074086;28;20459;-82
2023/12/15 13:04:39;;;;;;;35.13;10.80;;;;;;;;;;5074237;28;20458;-81
2023/12/15 13:07:06;;;;;;;31.67;13.00;;;;;;;;;;5072890;28;20580;-82
2023/12/15 13:09:34;;;;;;;26.03;9.17;;;;;;;;;;5074207;28;20446;-80
2023/12/15 13:12:00;;;;;;;18.87;9.20;;;;;;;;;;5073793;28;21027;-81
2023/12/15 13:14:27;;;;;;;34.83;11.27;;;;;;;;;;5074115;28;20483;-81
2023/12/15 13:16:53;;;;;;;27.10;9.40;;;;;;;;;;5072286;28;20466;-80
2023/12/15 13:19:21;;;;;;;26.20;10.73;;;;;;;;;;5075035;28;20798;-80
2023/12/15 13:21:48;;;;;;;29.50;9.57;;;;;;;;;;5074389;28;20467;-79
2023/12/15 13:24:15;;;;;;;31.40;11.93;;;;;;;;;;5074294;28;20455;-82
2023/12/15 13:26:42;;;;;;;25.90;9.80;;;;;;;;;;5073658;28;20463;-80
2023/12/15 13:29:09;;;;;;;32.20;11.43;;;;;;;;;;5073040;28;20492;-80
2023/12/15 13:31:35;;;;;;;24.20;11.13;;;;;;;;;;5073342;28;20467;-80
2023/12/15 13:34:01;;;;;;;33.43;11.47;;;;;;;;;;5073503;28;20992;-80
2023/12/15 13:36:29;;;;;;;27.60;9.80;;;;;;;;;;5073478;28;20466;-80
2023/12/15 13:38:56;;;;;;;36.47;9.53;;;;;;;;;;5074202;28;20439;-80
2023/12/15 13:41:22;;;;;;;31.47;9.20;;;;;;;;;;5073580;28;20463;-80
2023/12/15 13:43:48;;;;;;;25.73;9.57;;;;;;;;;;5074094;28;20442;-80
2023/12/15 13:46:19;;;;;;;30.07;8.10;;;;;;;;;;5073550;28;20841;-81
2023/12/15 13:48:46;;;;;;;26.97;8.73;;;;;;;;;;5073993;28;20427;-80
2023/12/15 13:51:12;;;;;;;25.23;8.23;;;;;;;;;;5072043;28;20455;-80
2023/12/15 13:53:40;;;;;;;29.33;9.23;;;;;;;;;;5073557;28;20454;-80
2023/12/15 13:56:07;;;;;;;34.37;9.23;;;;;;;;;;5073341;28;20474;-79
2023/12/15 13:58:34;;;;;;;27.80;8.27;;;;;;;;;;5072015;28;20439;-81
2023/12/15 14:01:00;;;;;;;14.63;8.13;;;;;;;;;;5073414;28;20469;-80
2023/12/15 14:03:27;;;;;;;24.17;7.87;;;;;;;;;;5071945;28;20447;-80
2023/12/15 14:05:53;;;;;;;26.00;7.83;;;;;;;;;;5077482;28;20522;-80
2023/12/15 14:08:21;;;;;;;30.67;8.33;;;;;;;;;;5075999;28;20504;-80
2023/12/15 14:10:51;;;;;;;19.90;7.00;;;;;;;;;;5076894;28;20462;-80
2023/12/15 14:13:17;;;;;;;28.03;6.53;;;;;;;;;;5077271;28;20468;-80
2023/12/15 14:15:44;;;;;;;24.93;7.63;;;;;;;;;;5076686;28;20479;-80
2023/12/15 14:18:12;;;;;;;16.97;7.60;;;;;;;;;;5075996;28;20446;-80